sensor_id;sensor_type;location;lat;lon;timestamp;temperature;humidity
9971;DHT22;5026;51.494;11.974;2022-09-21T00:01:24;7.80;99.90
9971;DHT22;5026;51.494;11.974;2022-09-21T00:03:52;7.70;99.90
9971;DHT22;5026;51.494;11.974;2022-09-21T00:06:22;7.70;99.90
9971;DHT22;5026;51.494;11.974;2022-09-21T00:08:50;7.70;99.90
9971;DHT22;5026;51.494;11.974;2022-09-21T00:11:19;7.60;99.90
9971;DHT22;5026;51.494;11.974;2022-09-21T00:13:46;7.60;99.90
9971;DHT22;5026;51.494;11.974;2022-09-21T00:16:14;7.60;99.90
9971;DHT22;5026;51.494;11.974;2022-09-21T00:18:41;7.60;99.90
9971;DHT22;5026;51.494;11.974;2022-09-21T00:21:10;7.70;99.90
9971;DHT22;5026;51.494;11.974;2022-09-21T00:23:39;7.60;99.90
9971;DHT22;5026;51.494;11.974;2022-09-21T00:26:08;7.60;99.90
9971;DHT22;5026;51.494;11.974;2022-09-21T00:28:35;7.60;99.90
9971;DHT22;5026;51.494;11.974;2022-09-21T00:31:03;7.60;99.90
9971;DHT22;5026;51.494;11.974;2022-09-21T00:33:30;8.50;99.90
9971;DHT22;5026;51.494;11.974;2022-09-21T00:36:01;7.60;99.90
9971;DHT22;5026;51.494;11.974;2022-09-21T00:38:29;7.60;99.90
9971;DHT22;5026;51.494;11.974;2022-09-21T00:40:57;7.60;99.90
9971;DHT22;5026;51.494;11.974;2022-09-21T00:43:24;7.60;99.90
9971;DHT22;5026;51.494;11.974;2022-09-21T00:45:56;7.70;99.90
9971;DHT22;5026;51.494;11.974;2022-09-21T00:48:24;7.50;99.90
9971;DHT22;5026;51.494;11.974;2022-09-21T00:50:54;7.50;99.90
9971;DHT22;5026;51.494;11.974;2022-09-21T00:53:23;7.50;99.90
9971;DHT22;5026;51.494;11.974;2022-09-21T00:55:52;7.50;99.90
9971;DHT22;5026;51.494;11.974;2022-09-21T00:58:24;7.50;99.90
9971;DHT22;5026;51.494;11.974;2022-09-21T01:00:54;7.60;99.90
9971;DHT22;5026;51.494;11.974;2022-09-21T01:03:21;7.50;99.90
9971;DHT22;5026;51.494;11.974;2022-09-21T01:05:48;7.40;99.90
9971;DHT22;5026;51.494;11.974;2022-09-21T01:08:16;7.50;99.90
9971;DHT22;5026;51.494;11.974;2022-09-21T01:11:00;7.40;99.90
9971;DHT22;5026;51.494;11.974;2022-09-21T01:13:39;8.00;99.90
9971;DHT22;5026;51.494;11.974;2022-09-21T01:16:14;7.40;99.90
9971;DHT22;5026;51.494;11.974;2022-09-21T01:18:44;7.40;99.90
9971;DHT22;5026;51.494;11.974;2022-09-21T01:21:17;7.40;99.90
9971;DHT22;5026;51.494;11.974;2022-09-21T01:24:11;7.90;99.90
9971;DHT22;5026;51.494;11.974;2022-09-21T01:27:03;7.30;99.90
9971;DHT22;5026;51.494;11.974;2022-09-21T01:29:38;7.30;99.90
9971;DHT22;5026;51.494;11.974;2022-09-21T01:32:10;7.20;99.90
9971;DHT22;5026;51.494;11.974;2022-09-21T01:34:43;7.30;99.90
9971;DHT22;5026;51.494;11.974;2022-09-21T01:37:13;7.40;99.90
9971;DHT22;5026;51.494;11.974;2022-09-21T01:39:44;7.20;99.90
9971;DHT22;5026;51.494;11.974;2022-09-21T01:42:13;7.20;99.90
9971;DHT22;5026;51.494;11.974;2022-09-21T01:44:43;7.20;99.90
9971;DHT22;5026;51.494;11.974;2022-09-21T01:47:13;7.20;99.90
9971;DHT22;5026;51.494;11.974;2022-09-21T01:49:43;7.40;99.90
9971;DHT22;5026;51.494;11.974;2022-09-21T01:52:21;7.40;99.90
9971;DHT22;5026;51.494;11.974;2022-09-21T01:54:53;7.10;99.90
9971;DHT22;5026;51.494;11.974;2022-09-21T01:57:39;7.10;99.90
9971;DHT22;5026;51.494;11.974;2022-09-21T02:00:09;7.10;99.90
9971;DHT22;5026;51.494;11.974;2022-09-21T02:02:40;7.10;99.90
9971;DHT22;5026;51.494;11.974;2022-09-21T02:05:07;7.10;99.90
9971;DHT22;5026;51.494;11.974;2022-09-21T02:07:34;7.10;99.90
9971;DHT22;5026;51.494;11.974;2022-09-21T02:10:05;7.40;99.90
9971;DHT22;5026;51.494;11.974;2022-09-21T02:12:33;7.10;99.90
9971;DHT22;5026;51.494;11.974;2022-09-21T02:15:00;7.00;99.90
9971;DHT22;5026;51.494;11.974;2022-09-21T02:17:35;7.10;99.90
9971;DHT22;5026;51.494;11.974;2022-09-21T02:20:16;7.10;99.90
9971;DHT22;5026;51.494;11.974;2022-09-21T02:22:52;7.40;99.90
9971;DHT22;5026;51.494;11.974;2022-09-21T02:25:28;7.10;99.90
9971;DHT22;5026;51.494;11.974;2022-09-21T02:28:00;7.00;99.90
9971;DHT22;5026;51.494;11.974;2022-09-21T02:30:32;7.10;99.90
9971;DHT22;5026;51.494;11.974;2022-09-21T02:33:08;7.00;99.90
9971;DHT22;5026;51.494;11.974;2022-09-21T02:35:40;6.90;99.90
9971;DHT22;5026;51.494;11.974;2022-09-21T02:38:13;7.10;99.90
9971;DHT22;5026;51.494;11.974;2022-09-21T02:40:48;6.90;99.90
9971;DHT22;5026;51.494;11.974;2022-09-21T02:43:19;6.90;99.90
9971;DHT22;5026;51.494;11.974;2022-09-21T02:45:50;6.90;99.90
9971;DHT22;5026;51.494;11.974;2022-09-21T02:48:25;6.80;99.90
9971;DHT22;5026;51.494;11.974;2022-09-21T02:50:56;6.90;99.90
9971;DHT22;5026;51.494;11.974;2022-09-21T02:53:27;6.80;99.90
9971;DHT22;5026;51.494;11.974;2022-09-21T02:55:57;6.90;99.90
9971;DHT22;5026;51.494;11.974;2022-09-21T02:58:28;6.80;99.90
9971;DHT22;5026;51.494;11.974;2022-09-21T03:00:57;6.90;99.90
9971;DHT22;5026;51.494;11.974;2022-09-21T03:03:26;6.80;99.90
9971;DHT22;5026;51.494;11.974;2022-09-21T03:05:54;6.80;99.90
9971;DHT22;5026;51.494;11.974;2022-09-21T03:08:21;7.20;99.90
9971;DHT22;5026;51.494;11.974;2022-09-21T03:10:48;6.80;99.90
9971;DHT22;5026;51.494;11.974;2022-09-21T03:13:15;6.80;99.90
9971;DHT22;5026;51.494;11.974;2022-09-21T03:15:42;6.80;99.90
9971;DHT22;5026;51.494;11.974;2022-09-21T03:18:10;6.80;99.90
9971;DHT22;5026;51.494;11.974;2022-09-21T03:20:42;6.80;99.90
9971;DHT22;5026;51.494;11.974;2022-09-21T03:23:10;6.80;99.90
9971;DHT22;5026;51.494;11.974;2022-09-21T03:25:37;6.70;99.90
9971;DHT22;5026;51.494;11.974;2022-09-21T03:28:04;7.10;99.90
9971;DHT22;5026;51.494;11.974;2022-09-21T03:30:31;6.70;99.90
9971;DHT22;5026;51.494;11.974;2022-09-21T03:32:58;7.70;99.90
9971;DHT22;5026;51.494;11.974;2022-09-21T03:37:53;6.70;99.90
9971;DHT22;5026;51.494;11.974;2022-09-21T03:40:20;6.80;99.90
9971;DHT22;5026;51.494;11.974;2022-09-21T03:42:47;7.10;99.90
9971;DHT22;5026;51.494;11.974;2022-09-21T03:45:14;6.70;99.90
9971;DHT22;5026;51.494;11.974;2022-09-21T03:47:41;6.70;99.90
9971;DHT22;5026;51.494;11.974;2022-09-21T03:50:08;6.60;99.90
9971;DHT22;5026;51.494;11.974;2022-09-21T03:52:35;6.60;99.90
9971;DHT22;5026;51.494;11.974;2022-09-21T03:55:06;6.60;99.90
9971;DHT22;5026;51.494;11.974;2022-09-21T03:57:34;6.60;99.90
9971;DHT22;5026;51.494;11.974;2022-09-21T04:00:04;6.60;99.90
9971;DHT22;5026;51.494;11.974;2022-09-21T04:02:31;6.60;99.90
9971;DHT22;5026;51.494;11.974;2022-09-21T04:04:58;9.00;99.90
9971;DHT22;5026;51.494;11.974;2022-09-21T04:07:25;7.10;99.90
9971;DHT22;5026;51.494;11.974;2022-09-21T04:09:52;7.10;99.90
9971;DHT22;5026;51.494;11.974;2022-09-21T04:12:21;7.40;99.90
9971;DHT22;5026;51.494;11.974;2022-09-21T04:17:15;6.50;99.90
9971;DHT22;5026;51.494;11.974;2022-09-21T04:19:42;6.50;99.90
9971;DHT22;5026;51.494;11.974;2022-09-21T04:22:09;7.30;99.90
9971;DHT22;5026;51.494;11.974;2022-09-21T04:24:37;6.50;99.90
9971;DHT22;5026;51.494;11.974;2022-09-21T04:27:05;6.60;99.90
9971;DHT22;5026;51.494;11.974;2022-09-21T04:29:34;6.50;99.90
9971;DHT22;5026;51.494;11.974;2022-09-21T04:32:01;6.50;99.90
9971;DHT22;5026;51.494;11.974;2022-09-21T04:34:28;6.50;99.90
9971;DHT22;5026;51.494;11.974;2022-09-21T04:36:55;7.20;99.90
9971;DHT22;5026;51.494;11.974;2022-09-21T04:39:22;6.50;99.90
9971;DHT22;5026;51.494;11.974;2022-09-21T04:44:17;6.40;99.90
9971;DHT22;5026;51.494;11.974;2022-09-21T04:46:45;6.40;99.90
9971;DHT22;5026;51.494;11.974;2022-09-21T04:49:12;7.80;99.90
9971;DHT22;5026;51.494;11.974;2022-09-21T04:51:39;6.40;99.90
9971;DHT22;5026;51.494;11.974;2022-09-21T04:54:05;6.60;99.90
9971;DHT22;5026;51.494;11.974;2022-09-21T04:56:33;7.20;99.90
9971;DHT22;5026;51.494;11.974;2022-09-21T04:58:59;7.70;99.90
9971;DHT22;5026;51.494;11.974;2022-09-21T05:01:26;7.70;99.90
9971;DHT22;5026;51.494;11.974;2022-09-21T05:03:55;7.50;99.90
9971;DHT22;5026;51.494;11.974;2022-09-21T05:08:53;6.30;99.90
9971;DHT22;5026;51.494;11.974;2022-09-21T05:11:37;7.30;99.90
9971;DHT22;5026;51.494;11.974;2022-09-21T05:14:04;6.40;99.90
9971;DHT22;5026;51.494;11.974;2022-09-21T05:16:31;6.40;99.90
9971;DHT22;5026;51.494;11.974;2022-09-21T05:19:00;6.40;99.90
9971;DHT22;5026;51.494;11.974;2022-09-21T05:21:27;6.40;99.90
9971;DHT22;5026;51.494;11.974;2022-09-21T05:23:54;6.50;99.90
9971;DHT22;5026;51.494;11.974;2022-09-21T05:26:22;6.80;99.90
9971;DHT22;5026;51.494;11.974;2022-09-21T05:28:49;6.50;99.90
9971;DHT22;5026;51.494;11.974;2022-09-21T05:31:29;6.60;99.90
9971;DHT22;5026;51.494;11.974;2022-09-21T05:34:04;6.70;99.90
9971;DHT22;5026;51.494;11.974;2022-09-21T05:36:40;7.40;99.90
9971;DHT22;5026;51.494;11.974;2022-09-21T05:39:11;6.80;99.90
9971;DHT22;5026;51.494;11.974;2022-09-21T05:41:38;6.90;99.90
9971;DHT22;5026;51.494;11.974;2022-09-21T05:44:07;6.90;99.90
9971;DHT22;5026;51.494;11.974;2022-09-21T05:46:38;7.00;99.90
9971;DHT22;5026;51.494;11.974;2022-09-21T05:49:12;7.10;99.90
9971;DHT22;5026;51.494;11.974;2022-09-21T05:51:47;7.20;99.90
9971;DHT22;5026;51.494;11.974;2022-09-21T05:54:20;7.20;99.90
9971;DHT22;5026;51.494;11.974;2022-09-21T05:56:53;7.30;99.90
9971;DHT22;5026;51.494;11.974;2022-09-21T05:59:47;8.20;99.90
9971;DHT22;5026;51.494;11.974;2022-09-21T06:02:23;7.50;99.90
9971;DHT22;5026;51.494;11.974;2022-09-21T06:04:55;7.50;99.90
9971;DHT22;5026;51.494;11.974;2022-09-21T06:09:50;7.70;99.90
9971;DHT22;5026;51.494;11.974;2022-09-21T06:12:17;7.70;99.90
9971;DHT22;5026;51.494;11.974;2022-09-21T06:14:44;7.80;99.90
9971;DHT22;5026;51.494;11.974;2022-09-21T06:17:11;8.20;99.90
9971;DHT22;5026;51.494;11.974;2022-09-21T06:19:37;9.10;99.90
9971;DHT22;5026;51.494;11.974;2022-09-21T06:22:05;8.10;99.90
9971;DHT22;5026;51.494;11.974;2022-09-21T06:24:32;7.10;99.90
9971;DHT22;5026;51.494;11.974;2022-09-21T06:26:59;8.20;99.90
9971;DHT22;5026;51.494;11.974;2022-09-21T06:31:53;8.40;99.90
9971;DHT22;5026;51.494;11.974;2022-09-21T06:36:47;8.70;99.90
9971;DHT22;5026;51.494;11.974;2022-09-21T06:39:15;9.00;99.90
9971;DHT22;5026;51.494;11.974;2022-09-21T06:41:42;9.70;99.90
9971;DHT22;5026;51.494;11.974;2022-09-21T06:44:09;11.00;99.90
9971;DHT22;5026;51.494;11.974;2022-09-21T06:46:35;15.20;99.90
9971;DHT22;5026;51.494;11.974;2022-09-21T06:49:03;19.20;96.40
9971;DHT22;5026;51.494;11.974;2022-09-21T06:51:30;21.80;90.50
9971;DHT22;5026;51.494;11.974;2022-09-21T06:53:57;23.00;82.30
9971;DHT22;5026;51.494;11.974;2022-09-21T06:56:25;24.20;77.10
9971;DHT22;5026;51.494;11.974;2022-09-21T06:58:53;22.60;74.90
9971;DHT22;5026;51.494;11.974;2022-09-21T07:01:20;19.40;78.10
9971;DHT22;5026;51.494;11.974;2022-09-21T07:03:49;20.10;81.80
9971;DHT22;5026;51.494;11.974;2022-09-21T07:06:16;23.10;80.40
9971;DHT22;5026;51.494;11.974;2022-09-21T07:08:44;25.30;73.90
9971;DHT22;5026;51.494;11.974;2022-09-21T07:11:12;26.10;71.50
9971;DHT22;5026;51.494;11.974;2022-09-21T07:13:40;27.80;67.80
9971;DHT22;5026;51.494;11.974;2022-09-21T07:16:08;28.70;66.10
9971;DHT22;5026;51.494;11.974;2022-09-21T07:18:35;29.70;62.70
9971;DHT22;5026;51.494;11.974;2022-09-21T07:21:04;30.40;60.90
9971;DHT22;5026;51.494;11.974;2022-09-21T07:23:31;30.10;59.80
9971;DHT22;5026;51.494;11.974;2022-09-21T07:26:01;31.70;57.90
9971;DHT22;5026;51.494;11.974;2022-09-21T07:28:29;32.10;56.40
9971;DHT22;5026;51.494;11.974;2022-09-21T07:30:57;33.10;54.50
9971;DHT22;5026;51.494;11.974;2022-09-21T07:33:24;32.80;53.10
9971;DHT22;5026;51.494;11.974;2022-09-21T07:35:52;33.40;52.10
9971;DHT22;5026;51.494;11.974;2022-09-21T07:38:21;34.10;50.70
9971;DHT22;5026;51.494;11.974;2022-09-21T07:40:47;34.00;50.60
9971;DHT22;5026;51.494;11.974;2022-09-21T07:43:15;33.80;49.60
9971;DHT22;5026;51.494;11.974;2022-09-21T07:45:42;32.80;50.70
9971;DHT22;5026;51.494;11.974;2022-09-21T07:48:10;34.60;49.10
9971;DHT22;5026;51.494;11.974;2022-09-21T07:50:37;33.60;49.20
9971;DHT22;5026;51.494;11.974;2022-09-21T07:53:05;35.00;49.20
9971;DHT22;5026;51.494;11.974;2022-09-21T07:55:32;35.10;48.60
9971;DHT22;5026;51.494;11.974;2022-09-21T07:57:58;35.00;48.20
9971;DHT22;5026;51.494;11.974;2022-09-21T08:00:43;36.20;47.20
9971;DHT22;5026;51.494;11.974;2022-09-21T08:03:11;37.10;46.40
9971;DHT22;5026;51.494;11.974;2022-09-21T08:05:38;37.70;46.10
9971;DHT22;5026;51.494;11.974;2022-09-21T08:08:05;37.70;44.60
9971;DHT22;5026;51.494;11.974;2022-09-21T08:10:31;36.70;45.00
9971;DHT22;5026;51.494;11.974;2022-09-21T08:13:00;37.00;45.00
9971;DHT22;5026;51.494;11.974;2022-09-21T08:15:27;36.00;46.10
9971;DHT22;5026;51.494;11.974;2022-09-21T08:17:54;36.90;45.60
9971;DHT22;5026;51.494;11.974;2022-09-21T08:20:22;36.40;45.00
9971;DHT22;5026;51.494;11.974;2022-09-21T08:22:49;34.70;45.30
9971;DHT22;5026;51.494;11.974;2022-09-21T08:25:18;34.50;46.80
9971;DHT22;5026;51.494;11.974;2022-09-21T08:27:45;34.30;48.00
9971;DHT22;5026;51.494;11.974;2022-09-21T08:30:12;35.00;47.40
9971;DHT22;5026;51.494;11.974;2022-09-21T08:32:39;35.60;47.50
9971;DHT22;5026;51.494;11.974;2022-09-21T08:35:07;35.50;47.00
9971;DHT22;5026;51.494;11.974;2022-09-21T08:37:35;35.20;47.30
9971;DHT22;5026;51.494;11.974;2022-09-21T08:40:03;34.40;47.80
9971;DHT22;5026;51.494;11.974;2022-09-21T08:42:40;32.70;48.10
9971;DHT22;5026;51.494;11.974;2022-09-21T08:45:13;31.70;49.40
9971;DHT22;5026;51.494;11.974;2022-09-21T08:47:43;31.20;50.10
9971;DHT22;5026;51.494;11.974;2022-09-21T08:50:32;30.60;50.40
9971;DHT22;5026;51.494;11.974;2022-09-21T08:53:04;29.70;50.70
9971;DHT22;5026;51.494;11.974;2022-09-21T08:55:32;29.10;51.40
9971;DHT22;5026;51.494;11.974;2022-09-21T08:57:59;27.50;52.30
9971;DHT22;5026;51.494;11.974;2022-09-21T09:00:27;26.80;54.00
9971;DHT22;5026;51.494;11.974;2022-09-21T09:03:24;26.30;55.30
9971;DHT22;5026;51.494;11.974;2022-09-21T09:05:59;26.70;55.30
9971;DHT22;5026;51.494;11.974;2022-09-21T09:08:42;26.10;55.30
9971;DHT22;5026;51.494;11.974;2022-09-21T09:11:18;25.80;56.30
9971;DHT22;5026;51.494;11.974;2022-09-21T09:17:12;24.90;57.20
9971;DHT22;5026;51.494;11.974;2022-09-21T09:19:45;24.50;58.10
9971;DHT22;5026;51.494;11.974;2022-09-21T09:22:16;24.20;59.40
9971;DHT22;5026;51.494;11.974;2022-09-21T09:24:48;23.50;60.00
9971;DHT22;5026;51.494;11.974;2022-09-21T09:27:19;22.70;60.60
9971;DHT22;5026;51.494;11.974;2022-09-21T09:29:52;22.30;61.70
9971;DHT22;5026;51.494;11.974;2022-09-21T09:32:23;22.00;61.60
9971;DHT22;5026;51.494;11.974;2022-09-21T09:35:04;21.30;62.60
9971;DHT22;5026;51.494;11.974;2022-09-21T09:37:34;20.60;64.70
9971;DHT22;5026;51.494;11.974;2022-09-21T09:40:06;21.00;65.60
9971;DHT22;5026;51.494;11.974;2022-09-21T09:42:49;21.40;65.40
9971;DHT22;5026;51.494;11.974;2022-09-21T09:45:30;21.80;63.80
9971;DHT22;5026;51.494;11.974;2022-09-21T09:48:10;21.80;63.30
9971;DHT22;5026;51.494;11.974;2022-09-21T09:50:41;21.90;63.50
9971;DHT22;5026;51.494;11.974;2022-09-21T09:53:10;21.10;63.90
9971;DHT22;5026;51.494;11.974;2022-09-21T09:55:42;21.40;64.90
9971;DHT22;5026;51.494;11.974;2022-09-21T09:58:16;21.40;63.20
9971;DHT22;5026;51.494;11.974;2022-09-21T10:00:45;21.30;64.70
9971;DHT22;5026;51.494;11.974;2022-09-21T10:03:18;20.50;67.20
9971;DHT22;5026;51.494;11.974;2022-09-21T10:05:46;19.90;68.00
9971;DHT22;5026;51.494;11.974;2022-09-21T10:08:39;20.40;69.50
9971;DHT22;5026;51.494;11.974;2022-09-21T10:11:10;19.70;68.10
9971;DHT22;5026;51.494;11.974;2022-09-21T10:13:38;19.80;67.30
9971;DHT22;5026;51.494;11.974;2022-09-21T10:16:11;21.00;67.90
9971;DHT22;5026;51.494;11.974;2022-09-21T10:18:43;19.90;66.50
9971;DHT22;5026;51.494;11.974;2022-09-21T10:21:16;20.80;67.90
9971;DHT22;5026;51.494;11.974;2022-09-21T10:23:46;19.90;66.60
9971;DHT22;5026;51.494;11.974;2022-09-21T10:26:16;20.10;66.90
9971;DHT22;5026;51.494;11.974;2022-09-21T10:28:54;19.50;67.20
9971;DHT22;5026;51.494;11.974;2022-09-21T10:31:23;21.10;69.80
9971;DHT22;5026;51.494;11.974;2022-09-21T10:33:53;18.30;68.80
9971;DHT22;5026;51.494;11.974;2022-09-21T10:36:27;19.30;70.70
9971;DHT22;5026;51.494;11.974;2022-09-21T10:38:54;18.90;70.20
9971;DHT22;5026;51.494;11.974;2022-09-21T10:41:22;20.50;70.50
9971;DHT22;5026;51.494;11.974;2022-09-21T10:43:49;19.30;68.40
9971;DHT22;5026;51.494;11.974;2022-09-21T10:46:31;19.70;68.70
9971;DHT22;5026;51.494;11.974;2022-09-21T10:48:59;19.60;68.50
9971;DHT22;5026;51.494;11.974;2022-09-21T10:51:29;19.10;68.50
9971;DHT22;5026;51.494;11.974;2022-09-21T10:53:58;17.50;70.10
9971;DHT22;5026;51.494;11.974;2022-09-21T10:56:27;17.30;71.20
9971;DHT22;5026;51.494;11.974;2022-09-21T10:59:11;17.40;71.60
9971;DHT22;5026;51.494;11.974;2022-09-21T11:01:44;17.30;71.70
9971;DHT22;5026;51.494;11.974;2022-09-21T11:04:15;17.10;71.30
9971;DHT22;5026;51.494;11.974;2022-09-21T11:06:46;18.90;73.10
9971;DHT22;5026;51.494;11.974;2022-09-21T11:09:18;17.60;71.80
9971;DHT22;5026;51.494;11.974;2022-09-21T11:11:52;19.20;73.30
9971;DHT22;5026;51.494;11.974;2022-09-21T11:14:34;17.70;71.60
9971;DHT22;5026;51.494;11.974;2022-09-21T11:17:10;18.00;71.40
9971;DHT22;5026;51.494;11.974;2022-09-21T11:19:43;18.30;70.70
9971;DHT22;5026;51.494;11.974;2022-09-21T11:22:18;18.40;70.50
9971;DHT22;5026;51.494;11.974;2022-09-21T11:24:50;18.50;69.90
9971;DHT22;5026;51.494;11.974;2022-09-21T11:27:24;19.80;70.90
9971;DHT22;5026;51.494;11.974;2022-09-21T11:29:59;20.30;71.20
9971;DHT22;5026;51.494;11.974;2022-09-21T11:32:47;19.20;70.40
9971;DHT22;5026;51.494;11.974;2022-09-21T11:35:40;20.10;71.50
9971;DHT22;5026;51.494;11.974;2022-09-21T11:38:21;18.30;71.00
9971;DHT22;5026;51.494;11.974;2022-09-21T11:41:02;17.70;71.50
9971;DHT22;5026;51.494;11.974;2022-09-21T11:43:49;17.00;72.70
9971;DHT22;5026;51.494;11.974;2022-09-21T11:46:24;16.90;73.60
9971;DHT22;5026;51.494;11.974;2022-09-21T11:49:06;16.60;74.80
9971;DHT22;5026;51.494;11.974;2022-09-21T11:51:51;16.60;75.60
9971;DHT22;5026;51.494;11.974;2022-09-21T11:54:49;17.00;76.30
9971;DHT22;5026;51.494;11.974;2022-09-21T11:57:21;17.10;75.80
9971;DHT22;5026;51.494;11.974;2022-09-21T12:00:12;17.30;75.70
9971;DHT22;5026;51.494;11.974;2022-09-21T12:05:41;17.00;73.70
9971;DHT22;5026;51.494;11.974;2022-09-21T12:08:41;17.50;75.90
9971;DHT22;5026;51.494;11.974;2022-09-21T12:11:16;16.50;75.30
9971;DHT22;5026;51.494;11.974;2022-09-21T12:13:52;16.70;76.00
9971;DHT22;5026;51.494;11.974;2022-09-21T12:16:31;16.90;75.70
9971;DHT22;5026;51.494;11.974;2022-09-21T12:19:05;17.40;75.60
9971;DHT22;5026;51.494;11.974;2022-09-21T12:21:38;17.10;73.40
9971;DHT22;5026;51.494;11.974;2022-09-21T12:24:12;17.30;73.90
9971;DHT22;5026;51.494;11.974;2022-09-21T12:26:42;17.60;73.40
9971;DHT22;5026;51.494;11.974;2022-09-21T12:29:16;17.60;73.20
9971;DHT22;5026;51.494;11.974;2022-09-21T12:31:54;18.40;73.40
9971;DHT22;5026;51.494;11.974;2022-09-21T12:34:26;18.10;72.30
9971;DHT22;5026;51.494;11.974;2022-09-21T12:37:12;18.30;72.60
9971;DHT22;5026;51.494;11.974;2022-09-21T12:39:44;18.40;72.30
9971;DHT22;5026;51.494;11.974;2022-09-21T12:42:23;18.50;72.40
9971;DHT22;5026;51.494;11.974;2022-09-21T12:44:54;18.10;72.30
9971;DHT22;5026;51.494;11.974;2022-09-21T12:47:28;18.90;73.30
9971;DHT22;5026;51.494;11.974;2022-09-21T12:50:02;17.90;70.70
9971;DHT22;5026;51.494;11.974;2022-09-21T12:52:31;17.50;70.30
9971;DHT22;5026;51.494;11.974;2022-09-21T12:55:04;18.70;72.00
9971;DHT22;5026;51.494;11.974;2022-09-21T12:57:56;17.60;71.00
9971;DHT22;5026;51.494;11.974;2022-09-21T13:00:29;19.70;73.10
9971;DHT22;5026;51.494;11.974;2022-09-21T13:03:02;19.20;72.20
9971;DHT22;5026;51.494;11.974;2022-09-21T13:05:36;19.60;72.60
9971;DHT22;5026;51.494;11.974;2022-09-21T13:08:10;19.00;71.30
9971;DHT22;5026;51.494;11.974;2022-09-21T13:10:45;19.00;69.70
9971;DHT22;5026;51.494;11.974;2022-09-21T13:13:23;19.00;70.80
9971;DHT22;5026;51.494;11.974;2022-09-21T13:15:51;19.30;70.80
9971;DHT22;5026;51.494;11.974;2022-09-21T13:18:23;20.30;71.10
9971;DHT22;5026;51.494;11.974;2022-09-21T13:20:50;19.50;69.60
9971;DHT22;5026;51.494;11.974;2022-09-21T13:23:23;19.30;68.80
9971;DHT22;5026;51.494;11.974;2022-09-21T13:25:59;19.20;68.40
9971;DHT22;5026;51.494;11.974;2022-09-21T13:29:04;19.00;68.60
9971;DHT22;5026;51.494;11.974;2022-09-21T13:31:40;18.90;68.20
9971;DHT22;5026;51.494;11.974;2022-09-21T13:34:29;18.60;66.80
9971;DHT22;5026;51.494;11.974;2022-09-21T13:37:20;18.70;67.50
9971;DHT22;5026;51.494;11.974;2022-09-21T13:42:44;19.90;67.60
9971;DHT22;5026;51.494;11.974;2022-09-21T13:48:17;19.50;66.40
9971;DHT22;5026;51.494;11.974;2022-09-21T13:50:55;19.50;65.90
9971;DHT22;5026;51.494;11.974;2022-09-21T13:53:27;19.10;68.60
9971;DHT22;5026;51.494;11.974;2022-09-21T13:56:00;19.80;72.30
9971;DHT22;5026;51.494;11.974;2022-09-21T13:58:30;17.90;73.00
9971;DHT22;5026;51.494;11.974;2022-09-21T14:01:02;18.40;74.70
9971;DHT22;5026;51.494;11.974;2022-09-21T14:03:33;16.90;75.10
9971;DHT22;5026;51.494;11.974;2022-09-21T14:06:06;17.00;75.90
9971;DHT22;5026;51.494;11.974;2022-09-21T14:08:37;16.90;75.40
9971;DHT22;5026;51.494;11.974;2022-09-21T14:11:09;16.90;75.80
9971;DHT22;5026;51.494;11.974;2022-09-21T14:13:43;17.00;75.90
9971;DHT22;5026;51.494;11.974;2022-09-21T14:20:02;17.00;76.00
9971;DHT22;5026;51.494;11.974;2022-09-21T14:22:37;17.00;75.40
9971;DHT22;5026;51.494;11.974;2022-09-21T14:28:11;16.70;75.30
9971;DHT22;5026;51.494;11.974;2022-09-21T14:30:39;16.80;75.90
9971;DHT22;5026;51.494;11.974;2022-09-21T14:33:23;18.30;77.10
9971;DHT22;5026;51.494;11.974;2022-09-21T14:35:51;17.00;76.20
9971;DHT22;5026;51.494;11.974;2022-09-21T14:38:23;17.20;75.50
9971;DHT22;5026;51.494;11.974;2022-09-21T14:40:55;17.00;74.80
9971;DHT22;5026;51.494;11.974;2022-09-21T14:43:26;18.60;76.30
9971;DHT22;5026;51.494;11.974;2022-09-21T14:46:08;18.60;76.90
9971;DHT22;5026;51.494;11.974;2022-09-21T14:48:46;16.60;75.10
9971;DHT22;5026;51.494;11.974;2022-09-21T14:51:21;16.50;75.20
9971;DHT22;5026;51.494;11.974;2022-09-21T14:54:06;16.40;74.40
9971;DHT22;5026;51.494;11.974;2022-09-21T14:56:43;16.40;74.60
9971;DHT22;5026;51.494;11.974;2022-09-21T14:59:31;16.40;74.60
9971;DHT22;5026;51.494;11.974;2022-09-21T15:02:08;16.40;75.20
9971;DHT22;5026;51.494;11.974;2022-09-21T15:04:46;16.40;75.00
9971;DHT22;5026;51.494;11.974;2022-09-21T15:07:33;16.60;75.20
9971;DHT22;5026;51.494;11.974;2022-09-21T15:10:24;16.30;74.00
9971;DHT22;5026;51.494;11.974;2022-09-21T15:16:24;16.30;74.30
9971;DHT22;5026;51.494;11.974;2022-09-21T15:19:01;16.30;74.20
9971;DHT22;5026;51.494;11.974;2022-09-21T15:21:31;17.20;74.10
9971;DHT22;5026;51.494;11.974;2022-09-21T15:24:08;16.30;73.30
9971;DHT22;5026;51.494;11.974;2022-09-21T15:26:38;16.20;73.30
9971;DHT22;5026;51.494;11.974;2022-09-21T15:29:19;16.10;72.30
9971;DHT22;5026;51.494;11.974;2022-09-21T15:31:46;16.30;72.90
9971;DHT22;5026;51.494;11.974;2022-09-21T15:34:14;16.10;72.80
9971;DHT22;5026;51.494;11.974;2022-09-21T15:36:42;16.00;73.50
9971;DHT22;5026;51.494;11.974;2022-09-21T15:39:21;16.10;74.50
9971;DHT22;5026;51.494;11.974;2022-09-21T15:42:11;15.90;74.70
9971;DHT22;5026;51.494;11.974;2022-09-21T15:44:43;16.50;75.50
9971;DHT22;5026;51.494;11.974;2022-09-21T15:47:14;15.90;75.60
9971;DHT22;5026;51.494;11.974;2022-09-21T15:49:42;15.80;76.10
9971;DHT22;5026;51.494;11.974;2022-09-21T15:52:15;15.80;76.60
9971;DHT22;5026;51.494;11.974;2022-09-21T15:54:45;15.70;77.00
9971;DHT22;5026;51.494;11.974;2022-09-21T15:57:30;15.80;75.40
9971;DHT22;5026;51.494;11.974;2022-09-21T16:00:01;15.50;74.50
9971;DHT22;5026;51.494;11.974;2022-09-21T16:02:34;15.40;74.70
9971;DHT22;5026;51.494;11.974;2022-09-21T16:05:02;15.40;74.70
9971;DHT22;5026;51.494;11.974;2022-09-21T16:07:32;15.30;74.90
9971;DHT22;5026;51.494;11.974;2022-09-21T16:10:00;15.40;74.80
9971;DHT22;5026;51.494;11.974;2022-09-21T16:12:42;15.20;74.80
9971;DHT22;5026;51.494;11.974;2022-09-21T16:15:18;15.50;75.40
9971;DHT22;5026;51.494;11.974;2022-09-21T16:17:58;15.10;74.90
9971;DHT22;5026;51.494;11.974;2022-09-21T16:20:47;15.00;75.40
9971;DHT22;5026;51.494;11.974;2022-09-21T16:23:17;16.60;76.50
9971;DHT22;5026;51.494;11.974;2022-09-21T16:25:52;14.90;75.50
9971;DHT22;5026;51.494;11.974;2022-09-21T16:28:34;15.00;75.60
9971;DHT22;5026;51.494;11.974;2022-09-21T16:31:28;14.80;75.80
9971;DHT22;5026;51.494;11.974;2022-09-21T16:34:00;14.60;75.60
9971;DHT22;5026;51.494;11.974;2022-09-21T16:36:39;14.50;76.30
9971;DHT22;5026;51.494;11.974;2022-09-21T16:39:12;14.50;76.80
9971;DHT22;5026;51.494;11.974;2022-09-21T16:41:41;14.40;77.40
9971;DHT22;5026;51.494;11.974;2022-09-21T16:44:14;14.30;77.20
9971;DHT22;5026;51.494;11.974;2022-09-21T16:46:46;15.20;78.40
9971;DHT22;5026;51.494;11.974;2022-09-21T16:49:16;14.30;78.20
9971;DHT22;5026;51.494;11.974;2022-09-21T16:51:46;14.20;78.50
9971;DHT22;5026;51.494;11.974;2022-09-21T16:54:15;14.10;79.30
9971;DHT22;5026;51.494;11.974;2022-09-21T16:56:42;15.70;81.40
9971;DHT22;5026;51.494;11.974;2022-09-21T16:59:23;13.80;80.90
9971;DHT22;5026;51.494;11.974;2022-09-21T17:01:51;13.80;81.30
9971;DHT22;5026;51.494;11.974;2022-09-21T17:04:19;13.70;81.70